sensor_id;sensor_type;location;lat;lon;timestamp;temperature;humidity
14769;DHT22;7476;49.404;11.152;2022-12-16T00:01:03;-1.40;99.90
14769;DHT22;7476;49.404;11.152;2022-12-16T00:03:30;-1.40;99.90
14769;DHT22;7476;49.404;11.152;2022-12-16T00:05:56;-1.50;99.90
14769;DHT22;7476;49.404;11.152;2022-12-16T00:08:23;-1.50;99.90
14769;DHT22;7476;49.404;11.152;2022-12-16T00:10:56;-1.50;99.90
14769;DHT22;7476;49.404;11.152;2022-12-16T00:13:23;-1.60;99.90
14769;DHT22;7476;49.404;11.152;2022-12-16T00:15:50;-1.60;99.90
14769;DHT22;7476;49.404;11.152;2022-12-16T00:18:16;-1.60;99.90
14769;DHT22;7476;49.404;11.152;2022-12-16T00:20:44;-1.60;99.90
14769;DHT22;7476;49.404;11.152;2022-12-16T00:23:11;-1.60;99.90
14769;DHT22;7476;49.404;11.152;2022-12-16T00:25:39;-1.60;99.90
14769;DHT22;7476;49.404;11.152;2022-12-16T00:28:08;-1.50;99.90
14769;DHT22;7476;49.404;11.152;2022-12-16T00:30:35;-1.60;99.90
14769;DHT22;7476;49.404;11.152;2022-12-16T00:33:02;-1.60;99.90
14769;DHT22;7476;49.404;11.152;2022-12-16T00:35:28;-1.60;99.90
14769;DHT22;7476;49.404;11.152;2022-12-16T00:37:56;-1.50;99.90
14769;DHT22;7476;49.404;11.152;2022-12-16T00:40:23;-1.50;99.90
14769;DHT22;7476;49.404;11.152;2022-12-16T00:42:49;-1.60;99.90
14769;DHT22;7476;49.404;11.152;2022-12-16T00:45:17;-1.60;99.90
14769;DHT22;7476;49.404;11.152;2022-12-16T00:47:45;-1.60;99.90
14769;DHT22;7476;49.404;11.152;2022-12-16T00:50:14;-1.60;99.90
14769;DHT22;7476;49.404;11.152;2022-12-16T00:52:40;-1.60;99.90
14769;DHT22;7476;49.404;11.152;2022-12-16T00:55:08;-1.60;99.90
14769;DHT22;7476;49.404;11.152;2022-12-16T00:57:35;-1.60;99.90
14769;DHT22;7476;49.404;11.152;2022-12-16T01:00:01;-1.60;99.90
14769;DHT22;7476;49.404;11.152;2022-12-16T01:02:31;-1.60;99.90
14769;DHT22;7476;49.404;11.152;2022-12-16T01:04:58;-1.60;99.90
14769;DHT22;7476;49.404;11.152;2022-12-16T01:07:24;-1.60;99.90
14769;DHT22;7476;49.404;11.152;2022-12-16T01:09:51;-1.60;99.90
14769;DHT22;7476;49.404;11.152;2022-12-16T01:12:18;-1.60;99.90
14769;DHT22;7476;49.404;11.152;2022-12-16T01:14:44;-1.60;99.90
14769;DHT22;7476;49.404;11.152;2022-12-16T01:17:11;-1.60;99.90
14769;DHT22;7476;49.404;11.152;2022-12-16T01:19:39;-1.60;99.90
14769;DHT22;7476;49.404;11.152;2022-12-16T01:22:06;-1.60;99.90
14769;DHT22;7476;49.404;11.152;2022-12-16T01:24:32;-1.60;99.90
14769;DHT22;7476;49.404;11.152;2022-12-16T01:26:59;-1.60;99.90
14769;DHT22;7476;49.404;11.152;2022-12-16T01:29:25;-1.60;99.90
14769;DHT22;7476;49.404;11.152;2022-12-16T01:31:52;-1.60;99.90
14769;DHT22;7476;49.404;11.152;2022-12-16T01:34:19;-1.60;99.90
14769;DHT22;7476;49.404;11.152;2022-12-16T01:36:47;-1.60;99.90
14769;DHT22;7476;49.404;11.152;2022-12-16T01:39:13;-1.50;99.90
14769;DHT22;7476;49.404;11.152;2022-12-16T01:41:40;-1.50;99.90
14769;DHT22;7476;49.404;11.152;2022-12-16T01:44:13;-1.50;99.90
14769;DHT22;7476;49.404;11.152;2022-12-16T01:46:41;-1.50;99.90
14769;DHT22;7476;49.404;11.152;2022-12-16T01:49:13;-1.50;99.90
14769;DHT22;7476;49.404;11.152;2022-12-16T01:51:43;-1.50;99.90
14769;DHT22;7476;49.404;11.152;2022-12-16T01:54:14;-1.60;99.90
14769;DHT22;7476;49.404;11.152;2022-12-16T01:56:44;-1.60;99.90
14769;DHT22;7476;49.404;11.152;2022-12-16T01:59:13;-1.50;99.90
14769;DHT22;7476;49.404;11.152;2022-12-16T02:01:41;-1.50;99.90
14769;DHT22;7476;49.404;11.152;2022-12-16T02:04:08;-1.60;99.90
14769;DHT22;7476;49.404;11.152;2022-12-16T02:06:35;-1.50;99.90
14769;DHT22;7476;49.404;11.152;2022-12-16T02:09:05;-1.50;99.90
14769;DHT22;7476;49.404;11.152;2022-12-16T02:11:58;-1.50;99.90
14769;DHT22;7476;49.404;11.152;2022-12-16T02:14:48;-1.50;99.90
14769;DHT22;7476;49.404;11.152;2022-12-16T02:17:23;-1.50;99.90
14769;DHT22;7476;49.404;11.152;2022-12-16T02:23:28;-1.50;99.90
14769;DHT22;7476;49.404;11.152;2022-12-16T02:26:28;-1.50;99.90
14769;DHT22;7476;49.404;11.152;2022-12-16T02:29:19;-1.50;99.90
14769;DHT22;7476;49.404;11.152;2022-12-16T02:31:58;-1.50;99.90
14769;DHT22;7476;49.404;11.152;2022-12-16T02:34:30;-1.50;99.90
14769;DHT22;7476;49.404;11.152;2022-12-16T02:37:08;-1.50;99.90
14769;DHT22;7476;49.404;11.152;2022-12-16T02:39:43;-1.50;99.90
14769;DHT22;7476;49.404;11.152;2022-12-16T02:42:17;-1.60;99.90
14769;DHT22;7476;49.404;11.152;2022-12-16T02:44:52;-1.60;99.90
14769;DHT22;7476;49.404;11.152;2022-12-16T02:47:22;-1.60;99.90
14769;DHT22;7476;49.404;11.152;2022-12-16T02:49:51;-1.60;99.90
14769;DHT22;7476;49.404;11.152;2022-12-16T02:52:19;-1.60;99.90
14769;DHT22;7476;49.404;11.152;2022-12-16T02:54:48;-1.60;99.90
14769;DHT22;7476;49.404;11.152;2022-12-16T02:57:32;-1.70;99.90
14769;DHT22;7476;49.404;11.152;2022-12-16T03:00:05;-1.70;99.90
14769;DHT22;7476;49.404;11.152;2022-12-16T03:02:40;-1.70;99.90
14769;DHT22;7476;49.404;11.152;2022-12-16T03:05:14;-1.70;99.90
14769;DHT22;7476;49.404;11.152;2022-12-16T03:07:43;-1.70;99.90
14769;DHT22;7476;49.404;11.152;2022-12-16T03:10:14;-1.70;99.90
14769;DHT22;7476;49.404;11.152;2022-12-16T03:12:43;-1.70;99.90
14769;DHT22;7476;49.404;11.152;2022-12-16T03:15:14;-1.70;99.90
14769;DHT22;7476;49.404;11.152;2022-12-16T03:17:44;-1.70;99.90
14769;DHT22;7476;49.404;11.152;2022-12-16T03:20:16;-1.70;99.90
14769;DHT22;7476;49.404;11.152;2022-12-16T03:22:45;-1.70;99.90
14769;DHT22;7476;49.404;11.152;2022-12-16T03:25:14;-1.70;99.90
14769;DHT22;7476;49.404;11.152;2022-12-16T03:27:45;-1.70;99.90
14769;DHT22;7476;49.404;11.152;2022-12-16T03:30:16;-1.70;99.90
14769;DHT22;7476;49.404;11.152;2022-12-16T03:32:49;-1.70;99.90
14769;DHT22;7476;49.404;11.152;2022-12-16T03:35:21;-1.70;99.90
14769;DHT22;7476;49.404;11.152;2022-12-16T03:37:52;-1.70;99.90
14769;DHT22;7476;49.404;11.152;2022-12-16T03:40:21;-1.70;99.90
14769;DHT22;7476;49.404;11.152;2022-12-16T03:42:50;-1.70;99.90
14769;DHT22;7476;49.404;11.152;2022-12-16T03:45:21;-1.80;99.90
14769;DHT22;7476;49.404;11.152;2022-12-16T03:47:51;-1.70;99.90
14769;DHT22;7476;49.404;11.152;2022-12-16T03:50:22;-1.70;99.90
14769;DHT22;7476;49.404;11.152;2022-12-16T03:52:50;-1.70;99.90
14769;DHT22;7476;49.404;11.152;2022-12-16T03:55:17;-1.70;99.90
14769;DHT22;7476;49.404;11.152;2022-12-16T03:57:44;-1.70;99.90
14769;DHT22;7476;49.404;11.152;2022-12-16T04:00:11;-1.70;99.90
14769;DHT22;7476;49.404;11.152;2022-12-16T04:02:38;-1.70;99.90
14769;DHT22;7476;49.404;11.152;2022-12-16T04:05:07;-1.80;99.90
14769;DHT22;7476;49.404;11.152;2022-12-16T04:07:34;-1.80;99.90
14769;DHT22;7476;49.404;11.152;2022-12-16T04:10:01;-1.80;99.90
14769;DHT22;7476;49.404;11.152;2022-12-16T04:12:27;-1.80;99.90
14769;DHT22;7476;49.404;11.152;2022-12-16T04:15:11;-1.80;99.90
14769;DHT22;7476;49.404;11.152;2022-12-16T04:17:56;-1.80;99.90
14769;DHT22;7476;49.404;11.152;2022-12-16T04:20:44;-1.80;99.90
14769;DHT22;7476;49.404;11.152;2022-12-16T04:23:30;-1.80;99.90
14769;DHT22;7476;49.404;11.152;2022-12-16T04:26:16;-1.80;99.90
14769;DHT22;7476;49.404;11.152;2022-12-16T04:28:43;-1.80;99.90
14769;DHT22;7476;49.404;11.152;2022-12-16T04:31:10;-1.80;99.90
14769;DHT22;7476;49.404;11.152;2022-12-16T04:33:37;-1.80;99.90
14769;DHT22;7476;49.404;11.152;2022-12-16T04:36:23;-1.80;99.90
14769;DHT22;7476;49.404;11.152;2022-12-16T04:39:07;-1.80;99.90
14769;DHT22;7476;49.404;11.152;2022-12-16T04:41:51;-1.70;99.90
14769;DHT22;7476;49.404;11.152;2022-12-16T04:44:36;-1.70;99.90
14769;DHT22;7476;49.404;11.152;2022-12-16T04:47:20;-1.80;99.90
14769;DHT22;7476;49.404;11.152;2022-12-16T04:50:05;-1.70;99.90
14769;DHT22;7476;49.404;11.152;2022-12-16T04:52:50;-1.70;99.90
14769;DHT22;7476;49.404;11.152;2022-12-16T04:55:35;-1.70;99.90
14769;DHT22;7476;49.404;11.152;2022-12-16T04:58:19;-1.80;99.90
14769;DHT22;7476;49.404;11.152;2022-12-16T05:01:03;-1.70;99.90
14769;DHT22;7476;49.404;11.152;2022-12-16T05:03:49;-1.70;99.90
14769;DHT22;7476;49.404;11.152;2022-12-16T05:06:34;-1.70;99.90
14769;DHT22;7476;49.404;11.152;2022-12-16T05:09:19;-1.70;99.90
14769;DHT22;7476;49.404;11.152;2022-12-16T05:12:04;-1.70;99.90
14769;DHT22;7476;49.404;11.152;2022-12-16T05:14:48;-1.70;99.90
14769;DHT22;7476;49.404;11.152;2022-12-16T05:17:32;-1.70;99.90
14769;DHT22;7476;49.404;11.152;2022-12-16T05:20:16;-1.70;99.90
14769;DHT22;7476;49.404;11.152;2022-12-16T05:23:00;-1.70;99.90
14769;DHT22;7476;49.404;11.152;2022-12-16T05:25:46;-1.70;99.90
14769;DHT22;7476;49.404;11.152;2022-12-16T05:28:30;-1.70;99.90
14769;DHT22;7476;49.404;11.152;2022-12-16T05:31:14;-1.70;99.90
14769;DHT22;7476;49.404;11.152;2022-12-16T05:33:58;-1.70;99.90
14769;DHT22;7476;49.404;11.152;2022-12-16T05:36:42;-1.70;99.90
14769;DHT22;7476;49.404;11.152;2022-12-16T05:39:26;-1.80;99.90
14769;DHT22;7476;49.404;11.152;2022-12-16T05:42:12;-1.80;99.90
14769;DHT22;7476;49.404;11.152;2022-12-16T05:44:56;-1.80;99.90
14769;DHT22;7476;49.404;11.152;2022-12-16T05:47:40;-1.70;99.90
14769;DHT22;7476;49.404;11.152;2022-12-16T05:50:24;-1.70;99.90
14769;DHT22;7476;49.404;11.152;2022-12-16T05:53:09;-1.70;99.90
14769;DHT22;7476;49.404;11.152;2022-12-16T05:55:53;-1.70;99.90
14769;DHT22;7476;49.404;11.152;2022-12-16T05:58:39;-1.80;99.90
14769;DHT22;7476;49.404;11.152;2022-12-16T06:01:23;-1.80;99.90
14769;DHT22;7476;49.404;11.152;2022-12-16T06:04:07;-1.80;99.90
14769;DHT22;7476;49.404;11.152;2022-12-16T06:06:52;-1.70;99.90
14769;DHT22;7476;49.404;11.152;2022-12-16T06:09:36;-1.80;99.90
14769;DHT22;7476;49.404;11.152;2022-12-16T06:12:20;-1.70;99.90
14769;DHT22;7476;49.404;11.152;2022-12-16T06:15:06;-1.70;99.90
14769;DHT22;7476;49.404;11.152;2022-12-16T06:17:50;-1.70;99.90
14769;DHT22;7476;49.404;11.152;2022-12-16T06:20:35;-1.70;99.90
14769;DHT22;7476;49.404;11.152;2022-12-16T06:23:19;-1.70;99.90
14769;DHT22;7476;49.404;11.152;2022-12-16T06:26:12;-1.80;99.90
14769;DHT22;7476;49.404;11.152;2022-12-16T06:28:56;-1.70;99.90
14769;DHT22;7476;49.404;11.152;2022-12-16T06:31:42;-1.70;99.90
14769;DHT22;7476;49.404;11.152;2022-12-16T06:34:26;-1.70;99.90
14769;DHT22;7476;49.404;11.152;2022-12-16T06:37:10;-1.70;99.90
14769;DHT22;7476;49.404;11.152;2022-12-16T06:39:54;-1.70;99.90
14769;DHT22;7476;49.404;11.152;2022-12-16T06:42:39;-1.70;99.90
14769;DHT22;7476;49.404;11.152;2022-12-16T06:45:23;-1.70;99.90
14769;DHT22;7476;49.404;11.152;2022-12-16T06:48:09;-1.70;99.90
14769;DHT22;7476;49.404;11.152;2022-12-16T06:50:53;-1.70;99.90
14769;DHT22;7476;49.404;11.152;2022-12-16T06:53:37;-1.70;99.90
14769;DHT22;7476;49.404;11.152;2022-12-16T06:56:21;-1.70;99.90
14769;DHT22;7476;49.404;11.152;2022-12-16T06:59:05;-1.70;99.90
14769;DHT22;7476;49.404;11.152;2022-12-16T07:01:49;-1.70;99.90
14769;DHT22;7476;49.404;11.152;2022-12-16T07:04:35;-1.70;99.90
14769;DHT22;7476;49.404;11.152;2022-12-16T07:07:19;-1.70;99.90
14769;DHT22;7476;49.404;11.152;2022-12-16T07:10:03;-1.70;99.90
14769;DHT22;7476;49.404;11.152;2022-12-16T07:12:48;-1.70;99.90
14769;DHT22;7476;49.404;11.152;2022-12-16T07:15:31;-1.60;99.90
14769;DHT22;7476;49.404;11.152;2022-12-16T07:18:15;-1.60;99.90
14769;DHT22;7476;49.404;11.152;2022-12-16T07:21:01;-1.60;99.90
14769;DHT22;7476;49.404;11.152;2022-12-16T07:23:45;-1.50;99.90
14769;DHT22;7476;49.404;11.152;2022-12-16T07:26:29;-1.50;99.90
14769;DHT22;7476;49.404;11.152;2022-12-16T07:29:13;-1.50;99.90
14769;DHT22;7476;49.404;11.152;2022-12-16T07:31:57;-1.40;99.90
14769;DHT22;7476;49.404;11.152;2022-12-16T07:34:41;-1.40;99.90
14769;DHT22;7476;49.404;11.152;2022-12-16T07:37:27;-1.30;99.90
14769;DHT22;7476;49.404;11.152;2022-12-16T07:40:11;-1.20;99.90
14769;DHT22;7476;49.404;11.152;2022-12-16T07:42:55;-1.20;99.90
14769;DHT22;7476;49.404;11.152;2022-12-16T07:45:39;-1.20;99.90
14769;DHT22;7476;49.404;11.152;2022-12-16T07:48:24;-1.20;99.90
14769;DHT22;7476;49.404;11.152;2022-12-16T07:51:08;-1.20;99.90
14769;DHT22;7476;49.404;11.152;2022-12-16T07:53:53;-1.10;99.90
14769;DHT22;7476;49.404;11.152;2022-12-16T07:56:38;-1.20;99.90
14769;DHT22;7476;49.404;11.152;2022-12-16T07:59:22;-1.10;99.90
14769;DHT22;7476;49.404;11.152;2022-12-16T08:02:07;-1.00;99.90
14769;DHT22;7476;49.404;11.152;2022-12-16T08:04:52;-0.90;99.90
14769;DHT22;7476;49.404;11.152;2022-12-16T08:07:38;-0.80;99.90
14769;DHT22;7476;49.404;11.152;2022-12-16T08:10:24;-0.70;99.90
14769;DHT22;7476;49.404;11.152;2022-12-16T08:13:09;-0.60;99.90
14769;DHT22;7476;49.404;11.152;2022-12-16T08:16:07;-0.60;99.90
14769;DHT22;7476;49.404;11.152;2022-12-16T08:18:51;-0.40;99.90
14769;DHT22;7476;49.404;11.152;2022-12-16T08:21:36;-0.40;99.90
14769;DHT22;7476;49.404;11.152;2022-12-16T08:24:20;-0.50;99.90
14769;DHT22;7476;49.404;11.152;2022-12-16T08:27:06;-0.50;99.90
14769;DHT22;7476;49.404;11.152;2022-12-16T08:29:50;-0.50;99.90
14769;DHT22;7476;49.404;11.152;2022-12-16T08:32:39;-0.60;99.90
14769;DHT22;7476;49.404;11.152;2022-12-16T08:35:24;-0.50;99.90
14769;DHT22;7476;49.404;11.152;2022-12-16T08:38:08;-0.40;99.90
14769;DHT22;7476;49.404;11.152;2022-12-16T08:40:54;-0.50;99.90
14769;DHT22;7476;49.404;11.152;2022-12-16T08:43:39;-0.50;99.90
14769;DHT22;7476;49.404;11.152;2022-12-16T08:46:24;-0.40;99.90
14769;DHT22;7476;49.404;11.152;2022-12-16T08:49:08;-0.30;99.90
14769;DHT22;7476;49.404;11.152;2022-12-16T08:51:52;-0.20;99.90
14769;DHT22;7476;49.404;11.152;2022-12-16T08:54:36;-0.10;99.90
14769;DHT22;7476;49.404;11.152;2022-12-16T08:57:21;0.00;99.90
14769;DHT22;7476;49.404;11.152;2022-12-16T09:00:08;0.00;99.90
14769;DHT22;7476;49.404;11.152;2022-12-16T09:02:54;0.00;99.90
14769;DHT22;7476;49.404;11.152;2022-12-16T09:05:38;0.00;99.90
14769;DHT22;7476;49.404;11.152;2022-12-16T09:08:22;0.20;99.90
14769;DHT22;7476;49.404;11.152;2022-12-16T09:11:07;0.00;99.90
14769;DHT22;7476;49.404;11.152;2022-12-16T09:13:51;0.30;99.90
14769;DHT22;7476;49.404;11.152;2022-12-16T09:16:37;0.30;99.90
14769;DHT22;7476;49.404;11.152;2022-12-16T09:19:21;0.30;99.90
14769;DHT22;7476;49.404;11.152;2022-12-16T09:22:05;0.50;99.90
14769;DHT22;7476;49.404;11.152;2022-12-16T09:24:49;0.50;99.90
14769;DHT22;7476;49.404;11.152;2022-12-16T09:27:33;0.70;99.90
14769;DHT22;7476;49.404;11.152;2022-12-16T09:30:17;0.70;99.90
14769;DHT22;7476;49.404;11.152;2022-12-16T09:33:02;0.80;99.90
14769;DHT22;7476;49.404;11.152;2022-12-16T09:36:01;0.40;99.90
14769;DHT22;7476;49.404;11.152;2022-12-16T09:38:46;0.50;99.90
14769;DHT22;7476;49.404;11.152;2022-12-16T09:41:40;0.50;99.90
14769;DHT22;7476;49.404;11.152;2022-12-16T09:44:33;0.50;99.90
14769;DHT22;7476;49.404;11.152;2022-12-16T09:47:25;0.40;99.90
14769;DHT22;7476;49.404;11.152;2022-12-16T09:50:19;0.40;99.90
14769;DHT22;7476;49.404;11.152;2022-12-16T09:53:07;0.50;99.90
14769;DHT22;7476;49.404;11.152;2022-12-16T09:55:53;0.80;99.90
14769;DHT22;7476;49.404;11.152;2022-12-16T09:58:42;0.80;99.90
14769;DHT22;7476;49.404;11.152;2022-12-16T10:01:29;0.70;99.90
14769;DHT22;7476;49.404;11.152;2022-12-16T10:04:15;0.80;99.90
14769;DHT22;7476;49.404;11.152;2022-12-16T10:07:01;0.50;99.90
14769;DHT22;7476;49.404;11.152;2022-12-16T10:09:52;0.70;99.90
14769;DHT22;7476;49.404;11.152;2022-12-16T10:12:45;0.70;99.90
14769;DHT22;7476;49.404;11.152;2022-12-16T10:15:35;0.60;99.90
14769;DHT22;7476;49.404;11.152;2022-12-16T10:18:34;0.60;99.90
14769;DHT22;7476;49.404;11.152;2022-12-16T10:21:26;0.80;99.90
14769;DHT22;7476;49.404;11.152;2022-12-16T10:24:20;0.80;99.90
14769;DHT22;7476;49.404;11.152;2022-12-16T10:27:11;0.70;99.90
14769;DHT22;7476;49.404;11.152;2022-12-16T10:29:56;0.70;99.90
14769;DHT22;7476;49.404;11.152;2022-12-16T10:32:43;0.80;99.90
14769;DHT22;7476;49.404;11.152;2022-12-16T10:35:33;0.70;99.90
14769;DHT22;7476;49.404;11.152;2022-12-16T10:38:22;0.60;99.90
14769;DHT22;7476;49.404;11.152;2022-12-16T10:41:11;0.80;99.90
14769;DHT22;7476;49.404;11.152;2022-12-16T10:43:57;1.20;99.90
14769;DHT22;7476;49.404;11.152;2022-12-16T10:46:45;1.30;99.90
14769;DHT22;7476;49.404;11.152;2022-12-16T10:49:29;1.30;99.90
14769;DHT22;7476;49.404;11.152;2022-12-16T10:52:13;1.30;99.90
14769;DHT22;7476;49.404;11.152;2022-12-16T10:55:02;1.40;99.90
14769;DHT22;7476;49.404;11.152;2022-12-16T10:58:00;1.20;99.90
14769;DHT22;7476;49.404;11.152;2022-12-16T11:00:46;1.00;99.90
14769;DHT22;7476;49.404;11.152;2022-12-16T11:03:32;1.00;99.90
14769;DHT22;7476;49.404;11.152;2022-12-16T11:06:20;0.90;99.90
14769;DHT22;7476;49.404;11.152;2022-12-16T11:09:21;0.90;99.90
14769;DHT22;7476;49.404;11.152;2022-12-16T11:12:16;0.80;99.90
14769;DHT22;7476;49.404;11.152;2022-12-16T11:15:21;0.80;99.90
14769;DHT22;7476;49.404;11.152;2022-12-16T11:18:09;0.70;99.90
14769;DHT22;7476;49.404;11.152;2022-12-16T11:21:11;0.60;99.90
14769;DHT22;7476;49.404;11.152;2022-12-16T11:24:20;0.60;99.90
14769;DHT22;7476;49.404;11.152;2022-12-16T11:27:11;0.50;99.90
14769;DHT22;7476;49.404;11.152;2022-12-16T11:29:57;0.50;99.90
14769;DHT22;7476;49.404;11.152;2022-12-16T11:32:46;0.50;99.90
14769;DHT22;7476;49.404;11.152;2022-12-16T11:35:33;0.50;99.90
14769;DHT22;7476;49.404;11.152;2022-12-16T11:38:23;0.60;99.90
14769;DHT22;7476;49.404;11.152;2022-12-16T11:41:16;0.60;99.90
14769;DHT22;7476;49.404;11.152;2022-12-16T11:44:16;0.70;99.90
14769;DHT22;7476;49.404;11.152;2022-12-16T11:47:02;0.60;99.90
14769;DHT22;7476;49.404;11.152;2022-12-16T11:49:49;0.70;99.90
14769;DHT22;7476;49.404;11.152;2022-12-16T11:52:34;0.70;99.90
14769;DHT22;7476;49.404;11.152;2022-12-16T11:55:22;0.70;99.90
14769;DHT22;7476;49.404;11.152;2022-12-16T11:58:14;0.60;99.90
14769;DHT22;7476;49.404;11.152;2022-12-16T12:01:04;0.50;99.90
14769;DHT22;7476;49.404;11.152;2022-12-16T12:03:51;0.50;99.90
14769;DHT22;7476;49.404;11.152;2022-12-16T12:06:58;0.40;99.90
14769;DHT22;7476;49.404;11.152;2022-12-16T12:09:50;0.30;99.90
14769;DHT22;7476;49.404;11.152;2022-12-16T12:12:42;0.20;99.90
14769;DHT22;7476;49.404;11.152;2022-12-16T12:15:37;0.20;99.90
14769;DHT22;7476;49.404;11.152;2022-12-16T12:18:32;0.10;99.90
14769;DHT22;7476;49.404;11.152;2022-12-16T12:21:23;0.00;99.90
14769;DHT22;7476;49.404;11.152;2022-12-16T12:24:22;-0.10;99.90
14769;DHT22;7476;49.404;11.152;2022-12-16T12:27:15;-0.10;99.90
14769;DHT22;7476;49.404;11.152;2022-12-16T12:30:05;0.00;99.90
14769;DHT22;7476;49.404;11.152;2022-12-16T12:33:05;0.00;99.90
14769;DHT22;7476;49.404;11.152;2022-12-16T12:36:00;-0.10;99.90
14769;DHT22;7476;49.404;11.152;2022-12-16T12:38:55;0.00;99.90
14769;DHT22;7476;49.404;11.152;2022-12-16T12:41:56;-0.10;99.90
14769;DHT22;7476;49.404;11.152;2022-12-16T12:44:52;-0.10;99.90
14769;DHT22;7476;49.404;11.152;2022-12-16T12:47:43;-0.20;99.90
14769;DHT22;7476;49.404;11.152;2022-12-16T12:50:36;-0.30;99.90
14769;DHT22;7476;49.404;11.152;2022-12-16T12:53:29;-0.40;99.90
14769;DHT22;7476;49.404;11.152;2022-12-16T12:56:19;-0.50;99.90
14769;DHT22;7476;49.404;11.152;2022-12-16T12:59:13;-0.60;99.90
14769;DHT22;7476;49.404;11.152;2022-12-16T13:02:00;-0.50;99.90
14769;DHT22;7476;49.404;11.152;2022-12-16T13:04:46;-0.40;99.90
14769;DHT22;7476;49.404;11.152;2022-12-16T13:07:35;-0.40;99.90
14769;DHT22;7476;49.404;11.152;2022-12-16T13:10:37;-0.40;99.90
14769;DHT22;7476;49.404;11.152;2022-12-16T13:13:33;-0.40;99.90
14769;DHT22;7476;49.404;11.152;2022-12-16T13:19:56;-0.20;99.90
14769;DHT22;7476;49.404;11.152;2022-12-16T13:22:43;-0.30;99.90
14769;DHT22;7476;49.404;11.152;2022-12-16T13:25:38;-0.50;99.90
14769;DHT22;7476;49.404;11.152;2022-12-16T13:28:25;-0.50;99.90
14769;DHT22;7476;49.404;11.152;2022-12-16T13:31:12;-0.60;99.90
14769;DHT22;7476;49.404;11.152;2022-12-16T13:34:02;-0.50;99.90
14769;DHT22;7476;49.404;11.152;2022-12-16T13:36:54;-0.60;99.90
14769;DHT22;7476;49.404;11.152;2022-12-16T13:39:40;-0.60;99.90
14769;DHT22;7476;49.404;11.152;2022-12-16T13:42:52;-0.60;99.90
14769;DHT22;7476;49.404;11.152;2022-12-16T13:45:39;-0.60;99.90
14769;DHT22;7476;49.404;11.152;2022-12-16T13:48:27;-0.60;99.90
14769;DHT22;7476;49.404;11.152;2022-12-16T13:54:35;-0.70;99.90
14769;DHT22;7476;49.404;11.152;2022-12-16T13:57:21;-0.70;99.90
14769;DHT22;7476;49.404;11.152;2022-12-16T14:00:17;-0.70;99.90
14769;DHT22;7476;49.404;11.152;2022-12-16T14:03:03;-0.70;99.90
14769;DHT22;7476;49.404;11.152;2022-12-16T14:05:53;-0.70;99.90
14769;DHT22;7476;49.404;11.152;2022-12-16T14:08:38;-0.60;99.90
14769;DHT22;7476;49.404;11.152;2022-12-16T14:11:37;-0.60;99.90
14769;DHT22;7476;49.404;11.152;2022-12-16T14:14:29;-0.60;99.90
14769;DHT22;7476;49.404;11.152;2022-12-16T14:17:18;-0.70;99.90
14769;DHT22;7476;49.404;11.152;2022-12-16T14:20:10;-0.70;99.90
14769;DHT22;7476;49.404;11.152;2022-12-16T14:23:03;-0.80;99.90
14769;DHT22;7476;49.404;11.152;2022-12-16T14:25:56;-0.80;99.90
14769;DHT22;7476;49.404;11.152;2022-12-16T14:28:44;-0.90;99.90
14769;DHT22;7476;49.404;11.152;2022-12-16T14:31:34;-0.90;99.90
14769;DHT22;7476;49.404;11.152;2022-12-16T14:34:20;-1.00;99.90
14769;DHT22;7476;49.404;11.152;2022-12-16T14:37:21;-1.00;99.90
14769;DHT22;7476;49.404;11.152;2022-12-16T14:40:21;-1.00;99.90
14769;DHT22;7476;49.404;11.152;2022-12-16T14:43:11;-1.00;99.90
14769;DHT22;7476;49.404;11.152;2022-12-16T14:45:57;-1.10;99.90
14769;DHT22;7476;49.404;11.152;2022-12-16T14:48:45;-1.10;99.90
14769;DHT22;7476;49.404;11.152;2022-12-16T14:51:31;-1.10;99.90
14769;DHT22;7476;49.404;11.152;2022-12-16T14:54:19;-1.10;99.90
14769;DHT22;7476;49.404;11.152;2022-12-16T14:57:07;-1.10;99.90
14769;DHT22;7476;49.404;11.152;2022-12-16T15:00:13;-1.10;99.90
14769;DHT22;7476;49.404;11.152;2022-12-16T15:03:02;-1.20;99.90
14769;DHT22;7476;49.404;11.152;2022-12-16T15:05:49;-1.20;99.90
14769;DHT22;7476;49.404;11.152;2022-12-16T15:08:38;-1.30;99.90
14769;DHT22;7476;49.404;11.152;2022-12-16T15:11:24;-1.30;99.90
14769;DHT22;7476;49.404;11.152;2022-12-16T15:14:11;-1.30;99.90
14769;DHT22;7476;49.404;11.152;2022-12-16T15:16:57;-1.30;99.90
14769;DHT22;7476;49.404;11.152;2022-12-16T15:19:45;-1.40;99.90
14769;DHT22;7476;49.404;11.152;2022-12-16T15:22:31;-1.40;99.90
14769;DHT22;7476;49.404;11.152;2022-12-16T15:25:20;-1.40;99.90
14769;DHT22;7476;49.404;11.152;2022-12-16T15:28:18;-1.40;99.90
14769;DHT22;7476;49.404;11.152;2022-12-16T15:31:12;-1.40;99.90
14769;DHT22;7476;49.404;11.152;2022-12-16T15:34:20;-1.50;99.90
14769;DHT22;7476;49.404;11.152;2022-12-16T15:37:21;-1.50;99.90
14769;DHT22;7476;49.404;11.152;2022-12-16T15:40:20;-1.50;99.90
14769;DHT22;7476;49.404;11.152;2022-12-16T15:43:05;-1.50;99.90
14769;DHT22;7476;49.404;11.152;2022-12-16T15:45:50;-1.50;99.90
14769;DHT22;7476;49.404;11.152;2022-12-16T15:48:35;-1.50;99.90
14769;DHT22;7476;49.404;11.152;2022-12-16T15:51:22;-1.60;99.90
14769;DHT22;7476;49.404;11.152;2022-12-16T15:54:19;-1.60;99.90
14769;DHT22;7476;49.404;11.152;2022-12-16T15:57:22;-1.50;99.90
14769;DHT22;7476;49.404;11.152;2022-12-16T16:00:17;-1.60;99.90
14769;DHT22;7476;49.404;11.152;2022-12-16T16:03:02;-1.50;99.90
14769;DHT22;7476;49.404;11.152;2022-12-16T16:05:47;-1.60;99.90
14769;DHT22;7476;49.404;11.152;2022-12-16T16:08:36;-1.60;99.90
14769;DHT22;7476;49.404;11.152;2022-12-16T16:11:22;-1.60;99.90
14769;DHT22;7476;49.404;11.152;2022-12-16T16:14:06;-1.60;99.90
14769;DHT22;7476;49.404;11.152;2022-12-16T16:16:50;-1.60;99.90
14769;DHT22;7476;49.404;11.152;2022-12-16T16:19:34;-1.60;99.90
14769;DHT22;7476;49.404;11.152;2022-12-16T16:22:23;-1.60;99.90
14769;DHT22;7476;49.404;11.152;2022-12-16T16:25:10;-1.60;99.90
14769;DHT22;7476;49.404;11.152;2022-12-16T16:27:56;-1.60;99.90
14769;DHT22;7476;49.404;11.152;2022-12-16T16:30:40;-1.60;99.90
14769;DHT22;7476;49.404;11.152;2022-12-16T16:33:24;-1.60;99.90
14769;DHT22;7476;49.404;11.152;2022-12-16T16:36:12;-1.60;99.90
14769;DHT22;7476;49.404;11.152;2022-12-16T16:38:58;-1.50;99.90
14769;DHT22;7476;49.404;11.152;2022-12-16T16:41:42;-1.60;99.90
14769;DHT22;7476;49.404;11.152;2022-12-16T16:44:27;-1.60;99.90
14769;DHT22;7476;49.404;11.152;2022-12-16T16:47:15;-1.60;99.90
14769;DHT22;7476;49.404;11.152;2022-12-16T16:50:00;-1.60;99.90
14769;DHT22;7476;49.404;11.152;2022-12-16T16:52:45;-1.60;99.90
14769;DHT22;7476;49.404;11.152;2022-12-16T16:55:29;-1.60;99.90
14769;DHT22;7476;49.404;11.152;2022-12-16T16:58:15;-1.70;99.90
14769;DHT22;7476;49.404;11.152;2022-12-16T17:01:13;-1.70;99.90
14769;DHT22;7476;49.404;11.152;2022-12-16T17:03:58;-1.70;99.90
14769;DHT22;7476;49.404;11.152;2022-12-16T17:06:42;-1.70;99.90
14769;DHT22;7476;49.404;11.152;2022-12-16T17:09:26;-1.80;99.90
14769;DHT22;7476;49.404;11.152;2022-12-16T17:12:17;-1.80;99.90
14769;DHT22;7476;49.404;11.152;2022-12-16T17:15:12;-1.80;99.90
14769;DHT22;7476;49.404;11.152;2022-12-16T17:17:58;-1.80;99.90
14769;DHT22;7476;49.404;11.152;2022-12-16T17:20:43;-1.80;99.90
14769;DHT22;7476;49.404;11.152;2022-12-16T17:23:27;-1.90;99.90
14769;DHT22;7476;49.404;11.152;2022-12-16T17:26:11;-1.90;99.90